sensor_id;sensor_type;location;lat;lon;timestamp;pressure;altitude;pressure_sealevel;temperature;humidity
26865;BME280;40618;51.166;10.322;2023-02-28T00:00:28;98611.25;;;-1.09;72.07
26865;BME280;40618;51.166;10.322;2023-02-28T00:02:54;98610.31;;;-1.11;71.98
26865;BME280;40618;51.166;10.322;2023-02-28T00:05:22;98607.69;;;-1.14;72.08
26865;BME280;40618;51.166;10.322;2023-02-28T00:07:49;98607.53;;;-1.18;71.94
26865;BME280;40618;51.166;10.322;2023-02-28T00:10:20;98607.47;;;-1.20;72.10
26865;BME280;40618;51.166;10.322;2023-02-28T00:12:52;98604.94;;;-1.20;72.24
26865;BME280;40618;51.166;10.322;2023-02-28T00:15:19;98594.72;;;-1.22;72.15
26865;BME280;40618;51.166;10.322;2023-02-28T00:17:45;98609.13;;;-1.21;72.42
26865;BME280;40618;51.166;10.322;2023-02-28T00:20:12;98602.41;;;-1.20;72.27
26865;BME280;40618;51.166;10.322;2023-02-28T00:22:40;98594.72;;;-1.22;72.27
26865;BME280;40618;51.166;10.322;2023-02-28T00:25:12;98598.13;;;-1.21;72.12
26865;BME280;40618;51.166;10.322;2023-02-28T00:27:40;98590.41;;;-1.24;72.16
26865;BME280;40618;51.166;10.322;2023-02-28T00:30:07;98594.53;;;-1.26;72.19
26865;BME280;40618;51.166;10.322;2023-02-28T00:32:35;98603.06;;;-1.26;72.31
26865;BME280;40618;51.166;10.322;2023-02-28T00:35:02;98602.06;;;-1.29;71.88
26865;BME280;40618;51.166;10.322;2023-02-28T00:37:28;98606.16;;;-1.33;72.26
26865;BME280;40618;51.166;10.322;2023-02-28T00:39:54;98602.78;;;-1.33;72.08
26865;BME280;40618;51.166;10.322;2023-02-28T00:42:19;98602.88;;;-1.30;72.02
26865;BME280;40618;51.166;10.322;2023-02-28T00:44:45;98601.25;;;-1.28;72.20
26865;BME280;40618;51.166;10.322;2023-02-28T00:47:11;98602.13;;;-1.28;72.03
26865;BME280;40618;51.166;10.322;2023-02-28T00:49:36;98600.44;;;-1.27;72.07
26865;BME280;40618;51.166;10.322;2023-02-28T00:52:02;98596.88;;;-1.32;72.09
26865;BME280;40618;51.166;10.322;2023-02-28T00:54:28;98606.91;;;-1.36;72.37
26865;BME280;40618;51.166;10.322;2023-02-28T00:56:54;98605.25;;;-1.35;71.89
26865;BME280;40618;51.166;10.322;2023-02-28T00:59:19;98602.72;;;-1.35;72.18
26865;BME280;40618;51.166;10.322;2023-02-28T01:01:46;98596.00;;;-1.33;72.23
26865;BME280;40618;51.166;10.322;2023-02-28T01:04:12;98605.31;;;-1.33;72.06
26865;BME280;40618;51.166;10.322;2023-02-28T01:06:38;98603.56;;;-1.34;72.08
26865;BME280;40618;51.166;10.322;2023-02-28T01:09:06;98600.97;;;-1.36;72.09
26865;BME280;40618;51.166;10.322;2023-02-28T01:11:32;98596.69;;;-1.37;72.01
26865;BME280;40618;51.166;10.322;2023-02-28T01:13:59;98598.34;;;-1.39;72.00
26865;BME280;40618;51.166;10.322;2023-02-28T01:16:25;98596.66;;;-1.39;72.02
26865;BME280;40618;51.166;10.322;2023-02-28T01:18:51;98596.66;;;-1.39;72.34
26865;BME280;40618;51.166;10.322;2023-02-28T01:21:18;98593.22;;;-1.41;71.92
26865;BME280;40618;51.166;10.322;2023-02-28T01:23:46;98594.06;;;-1.40;71.90
26865;BME280;40618;51.166;10.322;2023-02-28T01:26:14;98592.31;;;-1.41;72.04
26865;BME280;40618;51.166;10.322;2023-02-28T01:28:51;98588.13;;;-1.41;71.87
26865;BME280;40618;51.166;10.322;2023-02-28T01:31:18;98588.03;;;-1.42;71.73
26865;BME280;40618;51.166;10.322;2023-02-28T01:33:45;98596.59;;;-1.40;72.15
26865;BME280;40618;51.166;10.322;2023-02-28T01:36:15;98597.41;;;-1.41;71.94
26865;BME280;40618;51.166;10.322;2023-02-28T01:38:43;98590.47;;;-1.45;71.36
26865;BME280;40618;51.166;10.322;2023-02-28T01:41:15;98594.72;;;-1.46;71.79
26865;BME280;40618;51.166;10.322;2023-02-28T01:46:13;98586.28;;;-1.45;71.74
26865;BME280;40618;51.166;10.322;2023-02-28T01:48:46;98579.53;;;-1.44;71.77
26865;BME280;40618;51.166;10.322;2023-02-28T01:51:19;98581.25;;;-1.43;71.89
26865;BME280;40618;51.166;10.322;2023-02-28T01:53:55;98580.38;;;-1.44;71.62
26865;BME280;40618;51.166;10.322;2023-02-28T01:56:28;98587.94;;;-1.45;72.02
26865;BME280;40618;51.166;10.322;2023-02-28T01:58:58;98577.72;;;-1.47;71.75
26865;BME280;40618;51.166;10.322;2023-02-28T02:01:25;98576.94;;;-1.46;71.88
26865;BME280;40618;51.166;10.322;2023-02-28T02:03:55;98574.44;;;-1.44;71.95
26865;BME280;40618;51.166;10.322;2023-02-28T02:06:44;98565.97;;;-1.45;71.79
26865;BME280;40618;51.166;10.322;2023-02-28T02:09:13;98566.75;;;-1.46;71.87
26865;BME280;40618;51.166;10.322;2023-02-28T02:11:40;98571.78;;;-1.47;71.78
26865;BME280;40618;51.166;10.322;2023-02-28T02:16:56;98564.13;;;-1.49;71.96
26865;BME280;40618;51.166;10.322;2023-02-28T02:23:47;98572.75;;;-1.44;71.73
26865;BME280;40618;51.166;10.322;2023-02-28T02:32:34;98561.59;;;-1.49;71.74
26865;BME280;40618;51.166;10.322;2023-02-28T02:35:27;98565.78;;;-1.49;71.90
26865;BME280;40618;51.166;10.322;2023-02-28T02:38:28;98562.38;;;-1.50;71.88
26865;BME280;40618;51.166;10.322;2023-02-28T02:41:31;98561.50;;;-1.50;71.78
26865;BME280;40618;51.166;10.322;2023-02-28T02:46:45;98562.38;;;-1.50;71.97
26865;BME280;40618;51.166;10.322;2023-02-28T02:49:20;98559.75;;;-1.53;71.74
26865;BME280;40618;51.166;10.322;2023-02-28T02:51:49;98564.69;;;-1.56;72.02
26865;BME280;40618;51.166;10.322;2023-02-28T02:54:21;98564.63;;;-1.58;71.84
26865;BME280;40618;51.166;10.322;2023-02-28T02:56:53;98561.25;;;-1.58;71.77
26865;BME280;40618;51.166;10.322;2023-02-28T02:59:21;98572.09;;;-1.62;71.90
26865;BME280;40618;51.166;10.322;2023-02-28T03:01:55;98567.78;;;-1.65;71.55
26865;BME280;40618;51.166;10.322;2023-02-28T03:04:28;98570.28;;;-1.66;71.63
26865;BME280;40618;51.166;10.322;2023-02-28T03:06:57;98567.59;;;-1.70;71.72
26865;BME280;40618;51.166;10.322;2023-02-28T03:09:24;98561.72;;;-1.68;71.80
26865;BME280;40618;51.166;10.322;2023-02-28T03:11:52;98561.81;;;-1.65;71.82
26865;BME280;40618;51.166;10.322;2023-02-28T03:14:35;98564.44;;;-1.64;71.95
26865;BME280;40618;51.166;10.322;2023-02-28T03:17:37;98555.78;;;-1.69;71.83
26865;BME280;40618;51.166;10.322;2023-02-28T03:20:31;98560.97;;;-1.66;71.73
26865;BME280;40618;51.166;10.322;2023-02-28T03:23:30;98555.13;;;-1.63;71.77
26865;BME280;40618;51.166;10.322;2023-02-28T03:26:12;98557.72;;;-1.62;72.14
26865;BME280;40618;51.166;10.322;2023-02-28T03:28:55;98558.59;;;-1.61;71.88
26865;BME280;40618;51.166;10.322;2023-02-28T03:36:48;98555.09;;;-1.65;71.83
26865;BME280;40618;51.166;10.322;2023-02-28T03:39:22;98554.19;;;-1.65;71.97
26865;BME280;40618;51.166;10.322;2023-02-28T03:42:15;98561.66;;;-1.70;71.76
26865;BME280;40618;51.166;10.322;2023-02-28T03:44:49;98550.59;;;-1.72;71.90
26865;BME280;40618;51.166;10.322;2023-02-28T03:50:34;98552.19;;;-1.74;71.76
26865;BME280;40618;51.166;10.322;2023-02-28T03:53:17;98552.16;;;-1.76;71.86
26865;BME280;40618;51.166;10.322;2023-02-28T03:56:22;98559.88;;;-1.73;71.59
26865;BME280;40618;51.166;10.322;2023-02-28T03:59:16;98561.59;;;-1.72;71.73
26865;BME280;40618;51.166;10.322;2023-02-28T04:01:48;98563.28;;;-1.72;71.62
26865;BME280;40618;51.166;10.322;2023-02-28T04:04:15;98559.06;;;-1.72;71.25
26865;BME280;40618;51.166;10.322;2023-02-28T04:06:42;98569.06;;;-1.76;71.63
26865;BME280;40618;51.166;10.322;2023-02-28T04:09:11;98558.91;;;-1.76;71.32
26865;BME280;40618;51.166;10.322;2023-02-28T04:11:44;98561.50;;;-1.75;71.35
26865;BME280;40618;51.166;10.322;2023-02-28T04:14:13;98557.28;;;-1.74;71.62
26865;BME280;40618;51.166;10.322;2023-02-28T04:16:40;98560.66;;;-1.74;71.10
26865;BME280;40618;51.166;10.322;2023-02-28T04:19:08;98563.22;;;-1.74;71.33
26865;BME280;40618;51.166;10.322;2023-02-28T04:21:40;98556.44;;;-1.75;71.28
26865;BME280;40618;51.166;10.322;2023-02-28T04:24:10;98558.09;;;-1.75;71.14
26865;BME280;40618;51.166;10.322;2023-02-28T04:26:43;98565.59;;;-1.78;71.52
26865;BME280;40618;51.166;10.322;2023-02-28T04:29:12;98563.81;;;-1.81;71.16
26865;BME280;40618;51.166;10.322;2023-02-28T04:31:42;98570.47;;;-1.84;71.10
26865;BME280;40618;51.166;10.322;2023-02-28T04:34:08;98567.72;;;-1.89;71.08
26865;BME280;40618;51.166;10.322;2023-02-28T04:36:34;98566.88;;;-1.90;71.02
26865;BME280;40618;51.166;10.322;2023-02-28T04:38:59;98561.00;;;-1.89;71.18
26865;BME280;40618;51.166;10.322;2023-02-28T04:41:26;98566.09;;;-1.89;70.61
26865;BME280;40618;51.166;10.322;2023-02-28T04:43:52;98571.06;;;-1.90;71.00
26865;BME280;40618;51.166;10.322;2023-02-28T04:46:18;98565.09;;;-1.92;71.01
26865;BME280;40618;51.166;10.322;2023-02-28T04:48:44;98566.84;;;-1.91;70.97
26865;BME280;40618;51.166;10.322;2023-02-28T04:51:12;98573.63;;;-1.90;70.90
26865;BME280;40618;51.166;10.322;2023-02-28T04:53:39;98568.47;;;-1.92;70.76
26865;BME280;40618;51.166;10.322;2023-02-28T04:56:07;98577.88;;;-1.89;70.75
26865;BME280;40618;51.166;10.322;2023-02-28T04:58:35;98573.75;;;-1.87;70.73
26865;BME280;40618;51.166;10.322;2023-02-28T05:01:06;98580.47;;;-1.88;70.94
26865;BME280;40618;51.166;10.322;2023-02-28T05:03:41;98576.28;;;-1.87;70.97
26865;BME280;40618;51.166;10.322;2023-02-28T05:06:08;98576.28;;;-1.87;70.70
26865;BME280;40618;51.166;10.322;2023-02-28T05:08:35;98569.47;;;-1.88;70.73
26865;BME280;40618;51.166;10.322;2023-02-28T05:11:01;98577.09;;;-1.88;70.53
26865;BME280;40618;51.166;10.322;2023-02-28T05:13:27;98577.09;;;-1.88;70.81
26865;BME280;40618;51.166;10.322;2023-02-28T05:15:54;98587.25;;;-1.88;71.01
26865;BME280;40618;51.166;10.322;2023-02-28T05:18:20;98578.78;;;-1.89;71.08
26865;BME280;40618;51.166;10.322;2023-02-28T05:20:45;98580.47;;;-1.88;70.87
26865;BME280;40618;51.166;10.322;2023-02-28T05:23:12;98586.31;;;-1.90;70.54
26865;BME280;40618;51.166;10.322;2023-02-28T05:25:39;98587.13;;;-1.91;71.06
26865;BME280;40618;51.166;10.322;2023-02-28T05:28:06;98582.84;;;-1.92;70.51
26865;BME280;40618;51.166;10.322;2023-02-28T05:30:33;98577.84;;;-1.91;70.91
26865;BME280;40618;51.166;10.322;2023-02-28T05:32:59;98581.22;;;-1.90;70.76
26865;BME280;40618;51.166;10.322;2023-02-28T05:35:25;98585.34;;;-1.94;70.83
26865;BME280;40618;51.166;10.322;2023-02-28T05:37:51;98593.81;;;-1.93;71.15
26865;BME280;40618;51.166;10.322;2023-02-28T05:40:18;98585.34;;;-1.94;71.01
26865;BME280;40618;51.166;10.322;2023-02-28T05:42:45;98601.38;;;-1.95;70.63
26865;BME280;40618;51.166;10.322;2023-02-28T05:45:12;98605.66;;;-1.94;70.99
26865;BME280;40618;51.166;10.322;2023-02-28T05:47:38;98600.63;;;-1.92;70.92
26865;BME280;40618;51.166;10.322;2023-02-28T05:50:04;98603.28;;;-1.89;70.91
26865;BME280;40618;51.166;10.322;2023-02-28T05:52:31;98607.50;;;-1.90;70.81
26865;BME280;40618;51.166;10.322;2023-02-28T05:54:57;98609.97;;;-1.91;70.97
26865;BME280;40618;51.166;10.322;2023-02-28T05:57:23;98599.78;;;-1.93;70.73
26865;BME280;40618;51.166;10.322;2023-02-28T05:59:49;98608.31;;;-1.91;70.74
26865;BME280;40618;51.166;10.322;2023-02-28T06:02:16;98606.63;;;-1.90;70.88
26865;BME280;40618;51.166;10.322;2023-02-28T06:04:43;98607.50;;;-1.90;70.81
26865;BME280;40618;51.166;10.322;2023-02-28T06:07:09;98605.03;;;-1.88;70.60
26865;BME280;40618;51.166;10.322;2023-02-28T06:09:36;98606.75;;;-1.87;70.99
26865;BME280;40618;51.166;10.322;2023-02-28T06:12:04;98607.59;;;-1.87;70.95
26865;BME280;40618;51.166;10.322;2023-02-28T06:14:33;98610.19;;;-1.85;70.48
26865;BME280;40618;51.166;10.322;2023-02-28T06:17:00;98606.88;;;-1.84;70.82
26865;BME280;40618;51.166;10.322;2023-02-28T06:19:26;98610.31;;;-1.82;70.92
26865;BME280;40618;51.166;10.322;2023-02-28T06:21:54;98612.03;;;-1.81;70.92
26865;BME280;40618;51.166;10.322;2023-02-28T06:24:21;98609.47;;;-1.82;70.71
26865;BME280;40618;51.166;10.322;2023-02-28T06:26:47;98611.13;;;-1.83;70.79
26865;BME280;40618;51.166;10.322;2023-02-28T06:29:14;98609.47;;;-1.82;70.98
26865;BME280;40618;51.166;10.322;2023-02-28T06:31:44;98617.94;;;-1.82;71.05
26865;BME280;40618;51.166;10.322;2023-02-28T06:34:11;98614.53;;;-1.82;71.06
26865;BME280;40618;51.166;10.322;2023-02-28T06:36:41;98617.88;;;-1.83;70.75
26865;BME280;40618;51.166;10.322;2023-02-28T06:39:08;98619.63;;;-1.82;71.07
26865;BME280;40618;51.166;10.322;2023-02-28T06:41:34;98618.75;;;-1.83;70.81
26865;BME280;40618;51.166;10.322;2023-02-28T06:44:08;98624.69;;;-1.82;71.05
26865;BME280;40618;51.166;10.322;2023-02-28T06:46:40;98628.84;;;-1.84;70.67
26865;BME280;40618;51.166;10.322;2023-02-28T06:49:07;98625.44;;;-1.85;70.88
26865;BME280;40618;51.166;10.322;2023-02-28T06:51:39;98630.50;;;-1.85;70.86
26865;BME280;40618;51.166;10.322;2023-02-28T06:54:06;98635.59;;;-1.85;70.59
26865;BME280;40618;51.166;10.322;2023-02-28T06:56:36;98638.94;;;-1.86;70.21
26865;BME280;40618;51.166;10.322;2023-02-28T06:59:02;98643.09;;;-1.88;70.47
26865;BME280;40618;51.166;10.322;2023-02-28T07:01:28;98645.69;;;-1.87;70.68
26865;BME280;40618;51.166;10.322;2023-02-28T07:03:57;98632.94;;;-1.88;70.51
26865;BME280;40618;51.166;10.322;2023-02-28T07:06:23;98648.22;;;-1.87;70.55
26865;BME280;40618;51.166;10.322;2023-02-28T07:08:50;98650.72;;;-1.88;70.58
26865;BME280;40618;51.166;10.322;2023-02-28T07:11:18;98643.91;;;-1.89;70.53
26865;BME280;40618;51.166;10.322;2023-02-28T07:13:44;98651.56;;;-1.88;70.74
26865;BME280;40618;51.166;10.322;2023-02-28T07:16:12;98648.19;;;-1.88;70.60
26865;BME280;40618;51.166;10.322;2023-02-28T07:18:37;98645.69;;;-1.87;70.23
26865;BME280;40618;51.166;10.322;2023-02-28T07:21:06;98644.84;;;-1.87;70.34
26865;BME280;40618;51.166;10.322;2023-02-28T07:23:33;98643.22;;;-1.85;70.33
26865;BME280;40618;51.166;10.322;2023-02-28T07:25:59;98653.38;;;-1.85;70.28
26865;BME280;40618;51.166;10.322;2023-02-28T07:28:25;98645.59;;;-1.90;69.85
26865;BME280;40618;51.166;10.322;2023-02-28T07:30:51;98654.06;;;-1.89;69.83
26865;BME280;40618;51.166;10.322;2023-02-28T07:33:17;98648.19;;;-1.88;70.32
26865;BME280;40618;51.166;10.322;2023-02-28T07:35:43;98659.19;;;-1.88;70.23
26865;BME280;40618;51.166;10.322;2023-02-28T07:38:09;98652.50;;;-1.85;69.91
26865;BME280;40618;51.166;10.322;2023-02-28T07:40:36;98650.06;;;-1.82;70.16
26865;BME280;40618;51.166;10.322;2023-02-28T07:43:02;98657.75;;;-1.81;69.95
26865;BME280;40618;51.166;10.322;2023-02-28T07:45:29;98661.19;;;-1.80;69.97
26865;BME280;40618;51.166;10.322;2023-02-28T07:47:56;98659.50;;;-1.80;69.57
26865;BME280;40618;51.166;10.322;2023-02-28T07:50:22;98657.69;;;-1.82;69.86
26865;BME280;40618;51.166;10.322;2023-02-28T07:52:48;98658.50;;;-1.83;69.39
26865;BME280;40618;51.166;10.322;2023-02-28T07:55:14;98662.78;;;-1.82;69.74
26865;BME280;40618;51.166;10.322;2023-02-28T07:57:41;98656.09;;;-1.80;69.66
26865;BME280;40618;51.166;10.322;2023-02-28T08:00:09;98662.94;;;-1.78;69.64
26865;BME280;40618;51.166;10.322;2023-02-28T08:02:36;98668.72;;;-1.82;69.93
26865;BME280;40618;51.166;10.322;2023-02-28T08:05:02;98662.81;;;-1.81;69.73
26865;BME280;40618;51.166;10.322;2023-02-28T08:07:28;98662.03;;;-1.80;69.71
26865;BME280;40618;51.166;10.322;2023-02-28T08:09:53;98661.22;;;-1.79;70.14
26865;BME280;40618;51.166;10.322;2023-02-28T08:12:19;98661.22;;;-1.79;69.87
26865;BME280;40618;51.166;10.322;2023-02-28T08:14:45;98658.63;;;-1.80;70.05
26865;BME280;40618;51.166;10.322;2023-02-28T08:17:11;98651.06;;;-1.79;70.08
26865;BME280;40618;51.166;10.322;2023-02-28T08:19:37;98656.94;;;-1.80;70.18
26865;BME280;40618;51.166;10.322;2023-02-28T08:22:03;98656.16;;;-1.79;69.81
26865;BME280;40618;51.166;10.322;2023-02-28T08:24:29;98659.50;;;-1.80;70.05
26865;BME280;40618;51.166;10.322;2023-02-28T08:26:55;98655.31;;;-1.78;70.07
26865;BME280;40618;51.166;10.322;2023-02-28T08:29:21;98647.84;;;-1.75;70.28
26865;BME280;40618;51.166;10.322;2023-02-28T08:31:46;98658.97;;;-1.71;70.12
26865;BME280;40618;51.166;10.322;2023-02-28T08:34:13;98661.56;;;-1.70;70.25
26865;BME280;40618;51.166;10.322;2023-02-28T08:36:41;98656.63;;;-1.66;69.98
26865;BME280;40618;51.166;10.322;2023-02-28T08:39:08;98658.47;;;-1.62;70.14
26865;BME280;40618;51.166;10.322;2023-02-28T08:41:34;98657.88;;;-1.55;70.24
26865;BME280;40618;51.166;10.322;2023-02-28T08:44:00;98657.94;;;-1.54;70.16
26865;BME280;40618;51.166;10.322;2023-02-28T08:46:26;98653.84;;;-1.50;70.06
26865;BME280;40618;51.166;10.322;2023-02-28T08:48:56;98655.78;;;-1.43;70.02
26865;BME280;40618;51.166;10.322;2023-02-28T08:51:27;98658.78;;;-1.30;70.04
26865;BME280;40618;51.166;10.322;2023-02-28T08:53:55;98647.91;;;-1.26;69.76
26865;BME280;40618;51.166;10.322;2023-02-28T08:56:25;98656.41;;;-1.26;69.31
26865;BME280;40618;51.166;10.322;2023-02-28T08:58:54;98656.78;;;-1.15;69.96
26865;BME280;40618;51.166;10.322;2023-02-28T09:01:24;98662.53;;;-0.96;69.66
26865;BME280;40618;51.166;10.322;2023-02-28T09:03:52;98661.88;;;-0.91;69.31
26865;BME280;40618;51.166;10.322;2023-02-28T09:06:19;98658.91;;;-0.79;69.51
26865;BME280;40618;51.166;10.322;2023-02-28T09:08:47;98654.19;;;-0.68;69.13
26865;BME280;40618;51.166;10.322;2023-02-28T09:11:13;98655.97;;;-0.65;69.28
26865;BME280;40618;51.166;10.322;2023-02-28T09:13:39;98653.88;;;-0.52;68.69
26865;BME280;40618;51.166;10.322;2023-02-28T09:16:07;98662.00;;;-0.36;68.85
26865;BME280;40618;51.166;10.322;2023-02-28T09:18:35;98653.47;;;-0.38;68.58
26865;BME280;40618;51.166;10.322;2023-02-28T09:21:06;98656.38;;;-0.53;68.20
26865;BME280;40618;51.166;10.322;2023-02-28T09:23:34;98666.94;;;-0.66;68.01
26865;BME280;40618;51.166;10.322;2023-02-28T09:26:03;98653.16;;;-0.73;67.90
26865;BME280;40618;51.166;10.322;2023-02-28T09:28:30;98658.22;;;-0.73;68.11
26865;BME280;40618;51.166;10.322;2023-02-28T09:30:55;98659.25;;;-0.68;68.00
26865;BME280;40618;51.166;10.322;2023-02-28T09:33:24;98668.88;;;-0.59;67.48
26865;BME280;40618;51.166;10.322;2023-02-28T09:35:56;98660.53;;;-0.55;67.41
26865;BME280;40618;51.166;10.322;2023-02-28T09:38:23;98658.91;;;-0.53;67.04
26865;BME280;40618;51.166;10.322;2023-02-28T09:40:55;98660.75;;;-0.49;67.22
26865;BME280;40618;51.166;10.322;2023-02-28T09:43:25;98665.13;;;-0.45;67.54
26865;BME280;40618;51.166;10.322;2023-02-28T09:49:07;98662.69;;;-0.42;67.07
26865;BME280;40618;51.166;10.322;2023-02-28T09:54:30;98669.03;;;-0.02;67.19
26865;BME280;40618;51.166;10.322;2023-02-28T10:00:18;98667.53;;;0.32;67.47
26865;BME280;40618;51.166;10.322;2023-02-28T10:08:33;98652.69;;;0.77;67.52
26865;BME280;40618;51.166;10.322;2023-02-28T10:11:09;98664.94;;;0.90;66.96
26865;BME280;40618;51.166;10.322;2023-02-28T10:14:05;98659.03;;;0.91;67.05
26865;BME280;40618;51.166;10.322;2023-02-28T10:17:10;98670.66;;;0.81;66.36
26865;BME280;40618;51.166;10.322;2023-02-28T10:25:50;98662.91;;;0.48;65.99
26865;BME280;40618;51.166;10.322;2023-02-28T10:28:20;98670.31;;;0.40;65.80
26865;BME280;40618;51.166;10.322;2023-02-28T10:30:51;98671.81;;;0.33;65.93
26865;BME280;40618;51.166;10.322;2023-02-28T10:33:33;98666.72;;;0.33;66.02
26865;BME280;40618;51.166;10.322;2023-02-28T10:36:00;98665.09;;;0.36;65.93
26865;BME280;40618;51.166;10.322;2023-02-28T10:38:36;98675.09;;;0.29;65.74
26865;BME280;40618;51.166;10.322;2023-02-28T10:41:10;98666.44;;;0.24;65.76
26865;BME280;40618;51.166;10.322;2023-02-28T10:43:39;98663.72;;;0.18;65.89
26865;BME280;40618;51.166;10.322;2023-02-28T10:49:00;98673.22;;;0.24;65.64
26865;BME280;40618;51.166;10.322;2023-02-28T10:51:37;98664.66;;;0.22;66.09
26865;BME280;40618;51.166;10.322;2023-02-28T10:54:05;98653.69;;;0.24;65.45
26865;BME280;40618;51.166;10.322;2023-02-28T10:56:41;98653.69;;;0.24;65.21
26865;BME280;40618;51.166;10.322;2023-02-28T10:59:30;98659.59;;;0.23;65.70
26865;BME280;40618;51.166;10.322;2023-02-28T11:01:56;98656.13;;;0.20;65.21
26865;BME280;40618;51.166;10.322;2023-02-28T11:06:56;98658.59;;;0.16;65.12
26865;BME280;40618;51.166;10.322;2023-02-28T11:12:05;98656.03;;;0.16;65.55
26865;BME280;40618;51.166;10.322;2023-02-28T11:14:47;98659.53;;;0.20;65.66
26865;BME280;40618;51.166;10.322;2023-02-28T11:17:23;98647.66;;;0.21;65.05
26865;BME280;40618;51.166;10.322;2023-02-28T11:19:53;98661.25;;;0.21;65.14
26865;BME280;40618;51.166;10.322;2023-02-28T11:22:27;98655.34;;;0.22;65.50
26865;BME280;40618;51.166;10.322;2023-02-28T11:24:57;98645.31;;;0.28;65.85
26865;BME280;40618;51.166;10.322;2023-02-28T11:29:55;98633.72;;;0.38;65.50
26865;BME280;40618;51.166;10.322;2023-02-28T11:32:26;98644.91;;;0.43;65.69
26865;BME280;40618;51.166;10.322;2023-02-28T11:35:24;98636.47;;;0.44;65.63
26865;BME280;40618;51.166;10.322;2023-02-28T11:38:00;98633.88;;;0.43;65.40
26865;BME280;40618;51.166;10.322;2023-02-28T11:44:18;98644.59;;;0.32;64.63
26865;BME280;40618;51.166;10.322;2023-02-28T11:47:17;98634.44;;;0.34;65.23
26865;BME280;40618;51.166;10.322;2023-02-28T11:53:02;98637.28;;;0.43;65.00
26865;BME280;40618;51.166;10.322;2023-02-28T11:58:45;98640.06;;;0.51;65.31
26865;BME280;40618;51.166;10.322;2023-02-28T12:01:21;98629.91;;;0.53;64.78
26865;BME280;40618;51.166;10.322;2023-02-28T12:04:16;98645.19;;;0.53;64.89
26865;BME280;40618;51.166;10.322;2023-02-28T12:07:15;98628.91;;;0.47;64.90
26865;BME280;40618;51.166;10.322;2023-02-28T12:10:19;98625.59;;;0.50;64.83
26865;BME280;40618;51.166;10.322;2023-02-28T12:21:50;98623.53;;;0.67;64.92
26865;BME280;40618;51.166;10.322;2023-02-28T12:27:29;98620.13;;;0.68;65.01
26865;BME280;40618;51.166;10.322;2023-02-28T12:30:05;98613.44;;;0.72;64.71
26865;BME280;40618;51.166;10.322;2023-02-28T12:32:38;98623.66;;;0.72;64.59
26865;BME280;40618;51.166;10.322;2023-02-28T12:35:14;98614.22;;;0.69;64.90
26865;BME280;40618;51.166;10.322;2023-02-28T12:37:55;98616.78;;;0.69;64.85
26865;BME280;40618;51.166;10.322;2023-02-28T12:40:33;98607.53;;;0.73;64.74
26865;BME280;40618;51.166;10.322;2023-02-28T12:43:09;98606.78;;;0.77;65.22
26865;BME280;40618;51.166;10.322;2023-02-28T12:45:57;98604.28;;;0.78;65.20
26865;BME280;40618;51.166;10.322;2023-02-28T12:48:33;98597.53;;;0.80;64.75
26865;BME280;40618;51.166;10.322;2023-02-28T12:51:06;98602.66;;;0.82;65.05
26865;BME280;40618;51.166;10.322;2023-02-28T12:56:54;98600.97;;;0.81;64.53
26865;BME280;40618;51.166;10.322;2023-02-28T12:59:55;98594.94;;;0.79;64.98
26865;BME280;40618;51.166;10.322;2023-02-28T13:11:01;98603.72;;;0.90;64.73
26865;BME280;40618;51.166;10.322;2023-02-28T13:13:29;98597.72;;;0.87;64.90
26865;BME280;40618;51.166;10.322;2023-02-28T13:21:02;98586.84;;;0.94;64.53
26865;BME280;40618;51.166;10.322;2023-02-28T13:34:28;98571.84;;;1.06;64.45
26865;BME280;40618;51.166;10.322;2023-02-28T13:40:07;98583.28;;;1.21;65.20
26865;BME280;40618;51.166;10.322;2023-02-28T13:42:53;98583.28;;;1.21;64.53
26865;BME280;40618;51.166;10.322;2023-02-28T13:45:27;98578.25;;;1.24;64.42
26865;BME280;40618;51.166;10.322;2023-02-28T13:48:02;98577.41;;;1.23;64.32
26865;BME280;40618;51.166;10.322;2023-02-28T13:50:43;98580.69;;;1.19;64.66
26865;BME280;40618;51.166;10.322;2023-02-28T13:58:57;98571.19;;;1.13;64.78
26865;BME280;40618;51.166;10.322;2023-02-28T14:07:28;98556.75;;;1.14;64.70
26865;BME280;40618;51.166;10.322;2023-02-28T14:10:44;98561.19;;;1.21;64.64
26865;BME280;40618;51.166;10.322;2023-02-28T14:13:38;98555.50;;;1.31;64.35
26865;BME280;40618;51.166;10.322;2023-02-28T14:16:17;98548.69;;;1.32;64.78
26865;BME280;40618;51.166;10.322;2023-02-28T14:19:11;98543.50;;;1.29;64.59
26865;BME280;40618;51.166;10.322;2023-02-28T14:21:43;98559.59;;;1.26;64.53
26865;BME280;40618;51.166;10.322;2023-02-28T14:24:46;98551.94;;;1.26;64.51
26865;BME280;40618;51.166;10.322;2023-02-28T14:27:28;98550.28;;;1.28;64.29
26865;BME280;40618;51.166;10.322;2023-02-28T14:36:34;98546.97;;;1.32;64.44
26865;BME280;40618;51.166;10.322;2023-02-28T14:39:13;98546.97;;;1.32;63.86
26865;BME280;40618;51.166;10.322;2023-02-28T14:41:43;98548.75;;;1.35;64.26
26865;BME280;40618;51.166;10.322;2023-02-28T14:44:21;98551.44;;;1.40;64.61
26865;BME280;40618;51.166;10.322;2023-02-28T14:47:00;98553.97;;;1.40;64.06
26865;BME280;40618;51.166;10.322;2023-02-28T14:49:36;98543.78;;;1.40;64.78
26865;BME280;40618;51.166;10.322;2023-02-28T14:54:53;98555.63;;;1.38;63.72
26865;BME280;40618;51.166;10.322;2023-02-28T14:57:31;98550.50;;;1.38;64.13
26865;BME280;40618;51.166;10.322;2023-02-28T15:00:09;98556.41;;;1.35;64.39
26865;BME280;40618;51.166;10.322;2023-02-28T15:02:39;98553.00;;;1.34;63.85
26865;BME280;40618;51.166;10.322;2023-02-28T15:07:43;98542.84;;;1.38;63.90
26865;BME280;40618;51.166;10.322;2023-02-28T15:12:48;98550.47;;;1.36;64.16
26865;BME280;40618;51.166;10.322;2023-02-28T15:15:19;98541.09;;;1.35;64.46
26865;BME280;40618;51.166;10.322;2023-02-28T15:17:50;98541.13;;;1.37;64.53
26865;BME280;40618;51.166;10.322;2023-02-28T15:20:20;98530.97;;;1.38;64.82
26865;BME280;40618;51.166;10.322;2023-02-28T15:22:47;98534.38;;;1.39;64.32
26865;BME280;40618;51.166;10.322;2023-02-28T15:25:19;98533.53;;;1.38;64.46
26865;BME280;40618;51.166;10.322;2023-02-28T15:27:50;98543.69;;;1.37;64.43
26865;BME280;40618;51.166;10.322;2023-02-28T15:30:24;98545.28;;;1.31;64.33
26865;BME280;40618;51.166;10.322;2023-02-28T15:35:46;98547.84;;;1.31;64.21